sensor_id;sensor_type;location;lat;lon;timestamp;P1;durP1;ratioP1;P2;durP2;ratioP2
51907;SDS011;39320;53.214;6.556;2023-08-08T00:15:35;1.85;;;1.30;;
51907;SDS011;39320;53.214;6.556;2023-08-08T00:21:00;1.58;;;1.10;;
51907;SDS011;39320;53.214;6.556;2023-08-08T00:23:25;2.13;;;1.08;;
51907;SDS011;39320;53.214;6.556;2023-08-08T00:25:51;2.58;;;1.30;;
51907;SDS011;39320;53.214;6.556;2023-08-08T00:28:17;1.50;;;1.40;;
51907;SDS011;39320;53.214;6.556;2023-08-08T00:30:43;1.70;;;0.95;;
51907;SDS011;39320;53.214;6.556;2023-08-08T00:33:09;1.83;;;1.10;;
51907;SDS011;39320;53.214;6.556;2023-08-08T00:35:34;3.03;;;1.10;;
51907;SDS011;39320;53.214;6.556;2023-08-08T00:38:00;1.75;;;1.20;;
51907;SDS011;39320;53.214;6.556;2023-08-08T00:40:26;1.30;;;1.17;;
51907;SDS011;39320;53.214;6.556;2023-08-08T00:42:51;1.90;;;1.13;;
51907;SDS011;39320;53.214;6.556;2023-08-08T00:45:17;1.50;;;1.00;;
51907;SDS011;39320;53.214;6.556;2023-08-08T00:47:43;2.50;;;1.13;;
51907;SDS011;39320;53.214;6.556;2023-08-08T00:50:09;2.65;;;1.48;;
51907;SDS011;39320;53.214;6.556;2023-08-08T00:52:37;1.38;;;1.10;;
51907;SDS011;39320;53.214;6.556;2023-08-08T00:55:04;3.10;;;1.48;;
51907;SDS011;39320;53.214;6.556;2023-08-08T00:57:30;1.60;;;1.23;;
51907;SDS011;39320;53.214;6.556;2023-08-08T00:59:56;2.28;;;1.38;;
51907;SDS011;39320;53.214;6.556;2023-08-08T01:02:22;2.03;;;1.23;;
51907;SDS011;39320;53.214;6.556;2023-08-08T01:04:47;1.65;;;1.52;;
51907;SDS011;39320;53.214;6.556;2023-08-08T01:12:50;3.58;;;1.35;;
51907;SDS011;39320;53.214;6.556;2023-08-08T01:15:19;3.20;;;1.40;;
51907;SDS011;39320;53.214;6.556;2023-08-08T01:17:45;5.05;;;1.60;;
51907;SDS011;39320;53.214;6.556;2023-08-08T01:20:13;2.88;;;1.40;;
51907;SDS011;39320;53.214;6.556;2023-08-08T01:25:15;2.22;;;1.27;;
51907;SDS011;39320;53.214;6.556;2023-08-08T01:27:41;2.97;;;1.40;;
51907;SDS011;39320;53.214;6.556;2023-08-08T01:30:08;1.30;;;1.20;;
51907;SDS011;39320;53.214;6.556;2023-08-08T01:32:34;2.38;;;1.40;;
51907;SDS011;39320;53.214;6.556;2023-08-08T01:35:00;1.80;;;1.33;;
51907;SDS011;39320;53.214;6.556;2023-08-08T01:37:29;2.90;;;1.30;;
51907;SDS011;39320;53.214;6.556;2023-08-08T01:40:01;2.15;;;1.25;;
51907;SDS011;39320;53.214;6.556;2023-08-08T01:42:27;1.95;;;1.15;;
51907;SDS011;39320;53.214;6.556;2023-08-08T01:44:54;3.90;;;1.15;;
51907;SDS011;39320;53.214;6.556;2023-08-08T01:47:21;3.45;;;1.65;;
51907;SDS011;39320;53.214;6.556;2023-08-08T01:49:46;2.45;;;1.30;;
51907;SDS011;39320;53.214;6.556;2023-08-08T01:52:12;1.27;;;0.77;;
51907;SDS011;39320;53.214;6.556;2023-08-08T01:54:38;8.73;;;1.77;;
51907;SDS011;39320;53.214;6.556;2023-08-08T01:57:03;1.42;;;1.33;;
51907;SDS011;39320;53.214;6.556;2023-08-08T01:59:29;3.20;;;1.42;;
51907;SDS011;39320;53.214;6.556;2023-08-08T02:01:55;2.28;;;1.40;;
51907;SDS011;39320;53.214;6.556;2023-08-08T02:04:21;2.85;;;1.10;;
51907;SDS011;39320;53.214;6.556;2023-08-08T02:06:46;2.00;;;1.45;;
51907;SDS011;39320;53.214;6.556;2023-08-08T02:09:12;2.70;;;1.42;;
51907;SDS011;39320;53.214;6.556;2023-08-08T02:11:40;3.95;;;1.50;;
51907;SDS011;39320;53.214;6.556;2023-08-08T02:14:07;2.70;;;1.52;;
51907;SDS011;39320;53.214;6.556;2023-08-08T02:16:32;2.67;;;1.17;;
51907;SDS011;39320;53.214;6.556;2023-08-08T02:19:00;2.80;;;1.45;;
51907;SDS011;39320;53.214;6.556;2023-08-08T02:21:26;1.50;;;1.05;;
51907;SDS011;39320;53.214;6.556;2023-08-08T02:23:51;2.80;;;1.50;;
51907;SDS011;39320;53.214;6.556;2023-08-08T02:26:17;1.95;;;1.48;;
51907;SDS011;39320;53.214;6.556;2023-08-08T02:28:43;2.40;;;1.50;;
51907;SDS011;39320;53.214;6.556;2023-08-08T02:31:09;2.35;;;1.60;;
51907;SDS011;39320;53.214;6.556;2023-08-08T02:33:35;3.00;;;1.50;;
51907;SDS011;39320;53.214;6.556;2023-08-08T02:36:00;2.70;;;1.80;;
51907;SDS011;39320;53.214;6.556;2023-08-08T02:38:26;3.25;;;1.30;;
51907;SDS011;39320;53.214;6.556;2023-08-08T02:40:52;6.15;;;1.85;;
51907;SDS011;39320;53.214;6.556;2023-08-08T02:43:18;1.77;;;1.33;;
51907;SDS011;39320;53.214;6.556;2023-08-08T02:45:44;2.35;;;1.70;;
51907;SDS011;39320;53.214;6.556;2023-08-08T02:48:09;3.38;;;1.55;;
51907;SDS011;39320;53.214;6.556;2023-08-08T02:50:35;3.38;;;1.67;;
51907;SDS011;39320;53.214;6.556;2023-08-08T02:53:01;3.45;;;1.45;;
51907;SDS011;39320;53.214;6.556;2023-08-08T02:55:27;3.03;;;1.50;;
51907;SDS011;39320;53.214;6.556;2023-08-08T02:57:52;1.38;;;1.17;;
51907;SDS011;39320;53.214;6.556;2023-08-08T03:00:18;3.80;;;1.63;;
51907;SDS011;39320;53.214;6.556;2023-08-08T03:02:44;2.25;;;1.50;;
51907;SDS011;39320;53.214;6.556;2023-08-08T03:05:09;2.97;;;1.50;;
51907;SDS011;39320;53.214;6.556;2023-08-08T03:07:35;4.20;;;1.83;;
51907;SDS011;39320;53.214;6.556;2023-08-08T03:10:01;2.42;;;1.30;;
51907;SDS011;39320;53.214;6.556;2023-08-08T03:12:26;2.97;;;1.42;;
51907;SDS011;39320;53.214;6.556;2023-08-08T03:14:53;1.98;;;1.02;;
51907;SDS011;39320;53.214;6.556;2023-08-08T03:17:18;2.08;;;1.00;;
51907;SDS011;39320;53.214;6.556;2023-08-08T03:19:44;2.80;;;0.90;;
51907;SDS011;39320;53.214;6.556;2023-08-08T03:22:10;2.05;;;1.30;;
51907;SDS011;39320;53.214;6.556;2023-08-08T03:24:35;2.75;;;1.10;;
51907;SDS011;39320;53.214;6.556;2023-08-08T03:27:01;2.55;;;1.42;;
51907;SDS011;39320;53.214;6.556;2023-08-08T03:29:27;1.63;;;0.90;;
51907;SDS011;39320;53.214;6.556;2023-08-08T03:31:53;1.45;;;0.90;;
51907;SDS011;39320;53.214;6.556;2023-08-08T03:34:18;1.38;;;1.23;;
51907;SDS011;39320;53.214;6.556;2023-08-08T03:36:44;2.70;;;0.85;;
51907;SDS011;39320;53.214;6.556;2023-08-08T03:39:10;0.70;;;0.60;;
51907;SDS011;39320;53.214;6.556;2023-08-08T03:41:36;2.08;;;1.13;;
51907;SDS011;39320;53.214;6.556;2023-08-08T03:44:02;1.40;;;0.88;;
51907;SDS011;39320;53.214;6.556;2023-08-08T03:46:28;1.33;;;0.95;;
51907;SDS011;39320;53.214;6.556;2023-08-08T03:48:54;1.42;;;0.80;;
51907;SDS011;39320;53.214;6.556;2023-08-08T03:51:20;2.05;;;0.98;;
51907;SDS011;39320;53.214;6.556;2023-08-08T03:53:46;2.00;;;0.60;;
51907;SDS011;39320;53.214;6.556;2023-08-08T03:56:11;1.83;;;0.90;;
51907;SDS011;39320;53.214;6.556;2023-08-08T03:58:38;1.52;;;0.88;;
51907;SDS011;39320;53.214;6.556;2023-08-08T04:01:04;1.50;;;1.00;;
51907;SDS011;39320;53.214;6.556;2023-08-08T04:03:29;1.17;;;0.88;;
51907;SDS011;39320;53.214;6.556;2023-08-08T04:05:55;1.08;;;0.90;;
51907;SDS011;39320;53.214;6.556;2023-08-08T04:08:21;2.30;;;0.85;;
51907;SDS011;39320;53.214;6.556;2023-08-08T04:10:47;1.40;;;0.80;;
51907;SDS011;39320;53.214;6.556;2023-08-08T04:13:12;3.90;;;1.52;;
51907;SDS011;39320;53.214;6.556;2023-08-08T04:15:38;2.35;;;1.10;;
51907;SDS011;39320;53.214;6.556;2023-08-08T04:18:04;2.10;;;0.88;;
51907;SDS011;39320;53.214;6.556;2023-08-08T04:20:32;2.25;;;1.02;;
51907;SDS011;39320;53.214;6.556;2023-08-08T04:22:59;1.65;;;0.75;;
51907;SDS011;39320;53.214;6.556;2023-08-08T04:25:25;3.10;;;0.90;;
51907;SDS011;39320;53.214;6.556;2023-08-08T04:27:51;1.30;;;1.10;;
51907;SDS011;39320;53.214;6.556;2023-08-08T04:30:16;2.78;;;1.25;;
51907;SDS011;39320;53.214;6.556;2023-08-08T04:32:42;2.85;;;0.90;;
51907;SDS011;39320;53.214;6.556;2023-08-08T04:35:08;1.75;;;0.73;;
51907;SDS011;39320;53.214;6.556;2023-08-08T04:37:34;2.13;;;1.00;;
51907;SDS011;39320;53.214;6.556;2023-08-08T04:39:59;1.02;;;0.75;;
51907;SDS011;39320;53.214;6.556;2023-08-08T04:42:25;2.20;;;1.00;;
51907;SDS011;39320;53.214;6.556;2023-08-08T04:44:51;1.25;;;0.80;;
51907;SDS011;39320;53.214;6.556;2023-08-08T04:47:17;4.00;;;1.10;;
51907;SDS011;39320;53.214;6.556;2023-08-08T04:49:42;1.38;;;0.90;;
51907;SDS011;39320;53.214;6.556;2023-08-08T04:52:08;1.63;;;0.98;;
51907;SDS011;39320;53.214;6.556;2023-08-08T04:54:34;1.02;;;0.85;;
51907;SDS011;39320;53.214;6.556;2023-08-08T04:56:59;2.92;;;0.88;;
51907;SDS011;39320;53.214;6.556;2023-08-08T04:59:25;2.08;;;1.00;;
51907;SDS011;39320;53.214;6.556;2023-08-08T05:01:51;1.48;;;0.75;;
51907;SDS011;39320;53.214;6.556;2023-08-08T05:04:17;3.25;;;1.05;;
51907;SDS011;39320;53.214;6.556;2023-08-08T05:06:43;3.47;;;1.05;;
51907;SDS011;39320;53.214;6.556;2023-08-08T05:09:08;1.77;;;0.90;;
51907;SDS011;39320;53.214;6.556;2023-08-08T05:11:35;2.60;;;1.63;;
51907;SDS011;39320;53.214;6.556;2023-08-08T05:14:01;2.20;;;0.95;;
51907;SDS011;39320;53.214;6.556;2023-08-08T05:16:27;2.55;;;1.45;;
51907;SDS011;39320;53.214;6.556;2023-08-08T05:18:53;4.57;;;1.35;;
51907;SDS011;39320;53.214;6.556;2023-08-08T05:21:19;2.38;;;0.75;;
51907;SDS011;39320;53.214;6.556;2023-08-08T05:23:46;2.55;;;1.00;;
51907;SDS011;39320;53.214;6.556;2023-08-08T05:26:12;1.13;;;0.73;;
51907;SDS011;39320;53.214;6.556;2023-08-08T05:28:38;2.35;;;1.25;;
51907;SDS011;39320;53.214;6.556;2023-08-08T05:31:04;2.10;;;0.80;;
51907;SDS011;39320;53.214;6.556;2023-08-08T05:33:30;2.30;;;1.63;;
51907;SDS011;39320;53.214;6.556;2023-08-08T05:35:56;1.65;;;0.90;;
51907;SDS011;39320;53.214;6.556;2023-08-08T05:38:21;2.60;;;0.93;;
51907;SDS011;39320;53.214;6.556;2023-08-08T05:40:47;0.82;;;0.65;;
51907;SDS011;39320;53.214;6.556;2023-08-08T05:43:13;2.63;;;1.20;;
51907;SDS011;39320;53.214;6.556;2023-08-08T05:45:42;3.45;;;1.05;;
51907;SDS011;39320;53.214;6.556;2023-08-08T05:48:08;1.85;;;0.90;;
51907;SDS011;39320;53.214;6.556;2023-08-08T05:50:37;2.90;;;0.90;;
51907;SDS011;39320;53.214;6.556;2023-08-08T05:53:03;2.20;;;0.80;;
51907;SDS011;39320;53.214;6.556;2023-08-08T05:55:29;1.88;;;1.00;;
51907;SDS011;39320;53.214;6.556;2023-08-08T05:57:55;1.75;;;0.90;;
51907;SDS011;39320;53.214;6.556;2023-08-08T06:00:20;1.35;;;0.82;;
51907;SDS011;39320;53.214;6.556;2023-08-08T06:02:46;2.40;;;0.90;;
51907;SDS011;39320;53.214;6.556;2023-08-08T06:05:12;2.65;;;1.00;;
51907;SDS011;39320;53.214;6.556;2023-08-08T06:07:38;1.98;;;0.70;;
51907;SDS011;39320;53.214;6.556;2023-08-08T06:10:05;2.15;;;0.70;;
51907;SDS011;39320;53.214;6.556;2023-08-08T06:12:33;2.92;;;0.93;;
51907;SDS011;39320;53.214;6.556;2023-08-08T06:14:59;2.03;;;0.82;;
51907;SDS011;39320;53.214;6.556;2023-08-08T06:17:24;1.73;;;0.77;;
51907;SDS011;39320;53.214;6.556;2023-08-08T06:19:50;2.58;;;0.90;;
51907;SDS011;39320;53.214;6.556;2023-08-08T06:22:16;1.75;;;0.77;;
51907;SDS011;39320;53.214;6.556;2023-08-08T06:24:42;2.38;;;0.80;;
51907;SDS011;39320;53.214;6.556;2023-08-08T06:27:08;1.95;;;0.75;;
51907;SDS011;39320;53.214;6.556;2023-08-08T06:29:34;1.65;;;0.63;;
51907;SDS011;39320;53.214;6.556;2023-08-08T06:32:00;1.63;;;0.70;;
51907;SDS011;39320;53.214;6.556;2023-08-08T06:34:25;1.40;;;0.63;;
51907;SDS011;39320;53.214;6.556;2023-08-08T06:36:51;2.90;;;1.02;;
51907;SDS011;39320;53.214;6.556;2023-08-08T06:39:17;3.55;;;1.00;;
51907;SDS011;39320;53.214;6.556;2023-08-08T06:41:46;1.27;;;0.88;;
51907;SDS011;39320;53.214;6.556;2023-08-08T06:44:12;3.30;;;1.02;;
51907;SDS011;39320;53.214;6.556;2023-08-08T06:46:37;1.33;;;0.68;;
51907;SDS011;39320;53.214;6.556;2023-08-08T06:49:03;3.97;;;1.10;;
51907;SDS011;39320;53.214;6.556;2023-08-08T06:51:29;2.13;;;1.00;;
51907;SDS011;39320;53.214;6.556;2023-08-08T06:53:55;2.53;;;0.98;;
51907;SDS011;39320;53.214;6.556;2023-08-08T06:56:21;1.52;;;0.80;;
51907;SDS011;39320;53.214;6.556;2023-08-08T06:58:46;2.15;;;0.73;;
51907;SDS011;39320;53.214;6.556;2023-08-08T07:01:13;1.75;;;1.40;;
51907;SDS011;39320;53.214;6.556;2023-08-08T07:03:39;2.10;;;0.68;;
51907;SDS011;39320;53.214;6.556;2023-08-08T07:06:05;3.70;;;0.98;;
51907;SDS011;39320;53.214;6.556;2023-08-08T07:08:31;3.13;;;1.02;;
51907;SDS011;39320;53.214;6.556;2023-08-08T07:10:57;2.55;;;1.05;;
51907;SDS011;39320;53.214;6.556;2023-08-08T07:13:24;2.05;;;0.82;;
51907;SDS011;39320;53.214;6.556;2023-08-08T07:15:49;1.88;;;0.85;;
51907;SDS011;39320;53.214;6.556;2023-08-08T07:18:15;2.95;;;0.82;;
51907;SDS011;39320;53.214;6.556;2023-08-08T07:20:41;3.65;;;0.95;;
51907;SDS011;39320;53.214;6.556;2023-08-08T07:23:07;1.35;;;0.80;;
51907;SDS011;39320;53.214;6.556;2023-08-08T07:25:34;1.83;;;0.80;;
51907;SDS011;39320;53.214;6.556;2023-08-08T07:28:00;1.40;;;0.73;;
51907;SDS011;39320;53.214;6.556;2023-08-08T07:30:26;3.67;;;0.90;;
51907;SDS011;39320;53.214;6.556;2023-08-08T07:32:52;3.38;;;1.00;;
51907;SDS011;39320;53.214;6.556;2023-08-08T07:35:17;1.50;;;0.60;;
51907;SDS011;39320;53.214;6.556;2023-08-08T07:37:43;1.75;;;0.75;;
51907;SDS011;39320;53.214;6.556;2023-08-08T07:40:16;3.28;;;0.70;;
51907;SDS011;39320;53.214;6.556;2023-08-08T07:42:43;1.73;;;0.93;;
51907;SDS011;39320;53.214;6.556;2023-08-08T07:45:12;4.50;;;0.90;;
51907;SDS011;39320;53.214;6.556;2023-08-08T07:47:38;2.78;;;0.95;;
51907;SDS011;39320;53.214;6.556;2023-08-08T07:50:05;2.05;;;0.93;;
51907;SDS011;39320;53.214;6.556;2023-08-08T07:52:37;1.88;;;0.65;;
51907;SDS011;39320;53.214;6.556;2023-08-08T07:55:04;3.13;;;1.10;;
51907;SDS011;39320;53.214;6.556;2023-08-08T07:57:31;1.60;;;0.82;;
51907;SDS011;39320;53.214;6.556;2023-08-08T08:00:00;2.85;;;0.73;;
51907;SDS011;39320;53.214;6.556;2023-08-08T08:02:32;2.38;;;1.00;;
51907;SDS011;39320;53.214;6.556;2023-08-08T08:04:58;3.92;;;1.15;;
51907;SDS011;39320;53.214;6.556;2023-08-08T08:07:24;2.95;;;0.80;;
51907;SDS011;39320;53.214;6.556;2023-08-08T08:09:49;1.13;;;0.75;;
51907;SDS011;39320;53.214;6.556;2023-08-08T08:12:15;1.33;;;0.60;;
51907;SDS011;39320;53.214;6.556;2023-08-08T08:14:41;3.13;;;1.23;;
51907;SDS011;39320;53.214;6.556;2023-08-08T08:17:07;3.15;;;0.90;;
51907;SDS011;39320;53.214;6.556;2023-08-08T08:19:33;1.58;;;0.60;;
51907;SDS011;39320;53.214;6.556;2023-08-08T08:21:59;1.27;;;0.70;;
51907;SDS011;39320;53.214;6.556;2023-08-08T08:24:25;2.05;;;0.70;;
51907;SDS011;39320;53.214;6.556;2023-08-08T08:26:51;1.80;;;0.80;;
51907;SDS011;39320;53.214;6.556;2023-08-08T08:29:17;2.67;;;0.95;;
51907;SDS011;39320;53.214;6.556;2023-08-08T08:31:45;3.58;;;0.82;;
51907;SDS011;39320;53.214;6.556;2023-08-08T08:34:11;1.98;;;0.80;;
51907;SDS011;39320;53.214;6.556;2023-08-08T08:36:36;1.98;;;0.90;;
51907;SDS011;39320;53.214;6.556;2023-08-08T08:39:02;2.25;;;0.68;;
51907;SDS011;39320;53.214;6.556;2023-08-08T08:41:28;2.60;;;0.90;;
51907;SDS011;39320;53.214;6.556;2023-08-08T08:43:57;2.95;;;0.82;;
51907;SDS011;39320;53.214;6.556;2023-08-08T08:46:24;1.48;;;0.80;;
51907;SDS011;39320;53.214;6.556;2023-08-08T08:48:51;3.38;;;1.02;;
51907;SDS011;39320;53.214;6.556;2023-08-08T08:51:21;1.35;;;0.60;;
51907;SDS011;39320;53.214;6.556;2023-08-08T08:53:47;2.40;;;0.95;;
51907;SDS011;39320;53.214;6.556;2023-08-08T08:56:13;5.93;;;0.88;;
51907;SDS011;39320;53.214;6.556;2023-08-08T08:58:41;1.30;;;0.60;;
51907;SDS011;39320;53.214;6.556;2023-08-08T09:01:07;1.88;;;0.80;;
51907;SDS011;39320;53.214;6.556;2023-08-08T09:03:34;1.17;;;0.40;;
51907;SDS011;39320;53.214;6.556;2023-08-08T09:06:00;1.52;;;0.90;;
51907;SDS011;39320;53.214;6.556;2023-08-08T09:08:26;3.17;;;0.80;;
51907;SDS011;39320;53.214;6.556;2023-08-08T09:10:52;1.60;;;0.50;;
51907;SDS011;39320;53.214;6.556;2023-08-08T09:13:18;3.42;;;0.80;;
51907;SDS011;39320;53.214;6.556;2023-08-08T09:15:47;2.05;;;0.75;;
51907;SDS011;39320;53.214;6.556;2023-08-08T09:18:15;2.10;;;0.70;;
51907;SDS011;39320;53.214;6.556;2023-08-08T09:20:41;1.90;;;0.50;;
51907;SDS011;39320;53.214;6.556;2023-08-08T09:23:13;1.52;;;0.55;;
51907;SDS011;39320;53.214;6.556;2023-08-08T09:25:40;1.52;;;0.80;;
51907;SDS011;39320;53.214;6.556;2023-08-08T09:28:06;2.65;;;0.85;;
51907;SDS011;39320;53.214;6.556;2023-08-08T09:30:32;1.98;;;1.00;;
51907;SDS011;39320;53.214;6.556;2023-08-08T09:32:59;1.55;;;0.60;;
51907;SDS011;39320;53.214;6.556;2023-08-08T09:35:26;2.15;;;0.60;;
51907;SDS011;39320;53.214;6.556;2023-08-08T09:37:54;1.77;;;0.70;;
51907;SDS011;39320;53.214;6.556;2023-08-08T09:40:21;1.85;;;0.65;;
51907;SDS011;39320;53.214;6.556;2023-08-08T09:42:50;2.88;;;0.60;;
51907;SDS011;39320;53.214;6.556;2023-08-08T09:45:17;1.08;;;0.73;;
51907;SDS011;39320;53.214;6.556;2023-08-08T09:47:42;1.88;;;0.82;;
51907;SDS011;39320;53.214;6.556;2023-08-08T09:50:08;2.00;;;0.70;;
51907;SDS011;39320;53.214;6.556;2023-08-08T09:52:34;2.83;;;0.60;;
51907;SDS011;39320;53.214;6.556;2023-08-08T09:55:04;2.15;;;0.70;;
51907;SDS011;39320;53.214;6.556;2023-08-08T09:57:30;2.08;;;0.95;;
51907;SDS011;39320;53.214;6.556;2023-08-08T09:59:57;1.88;;;0.55;;
51907;SDS011;39320;53.214;6.556;2023-08-08T10:02:24;1.52;;;0.75;;
51907;SDS011;39320;53.214;6.556;2023-08-08T10:04:50;2.25;;;0.70;;
51907;SDS011;39320;53.214;6.556;2023-08-08T10:07:17;1.60;;;0.60;;
51907;SDS011;39320;53.214;6.556;2023-08-08T10:09:46;0.65;;;0.40;;
51907;SDS011;39320;53.214;6.556;2023-08-08T10:12:14;0.70;;;0.40;;
51907;SDS011;39320;53.214;6.556;2023-08-08T10:14:41;1.23;;;0.50;;
51907;SDS011;39320;53.214;6.556;2023-08-08T10:17:08;1.95;;;0.63;;
51907;SDS011;39320;53.214;6.556;2023-08-08T10:19:38;1.67;;;0.60;;
51907;SDS011;39320;53.214;6.556;2023-08-08T10:22:04;1.10;;;0.65;;
51907;SDS011;39320;53.214;6.556;2023-08-08T10:24:34;2.78;;;0.85;;
51907;SDS011;39320;53.214;6.556;2023-08-08T10:27:01;2.17;;;0.98;;
51907;SDS011;39320;53.214;6.556;2023-08-08T10:29:30;2.13;;;1.25;;
51907;SDS011;39320;53.214;6.556;2023-08-08T10:31:58;1.85;;;0.98;;
51907;SDS011;39320;53.214;6.556;2023-08-08T10:34:42;1.27;;;0.57;;
51907;SDS011;39320;53.214;6.556;2023-08-08T10:37:11;1.20;;;0.70;;
51907;SDS011;39320;53.214;6.556;2023-08-08T10:39:37;2.25;;;0.80;;
51907;SDS011;39320;53.214;6.556;2023-08-08T10:42:17;1.23;;;0.60;;
51907;SDS011;39320;53.214;6.556;2023-08-08T10:44:50;2.35;;;0.85;;
51907;SDS011;39320;53.214;6.556;2023-08-08T10:47:25;2.10;;;0.70;;
51907;SDS011;39320;53.214;6.556;2023-08-08T10:55:20;1.20;;;0.80;;
51907;SDS011;39320;53.214;6.556;2023-08-08T10:57:57;1.37;;;0.70;;
51907;SDS011;39320;53.214;6.556;2023-08-08T11:00:26;0.75;;;0.43;;
51907;SDS011;39320;53.214;6.556;2023-08-08T11:02:57;1.33;;;0.63;;
51907;SDS011;39320;53.214;6.556;2023-08-08T11:05:24;2.95;;;0.70;;
51907;SDS011;39320;53.214;6.556;2023-08-08T11:07:52;0.93;;;0.65;;
51907;SDS011;39320;53.214;6.556;2023-08-08T11:10:19;2.15;;;0.77;;
51907;SDS011;39320;53.214;6.556;2023-08-08T11:12:55;2.45;;;0.80;;
51907;SDS011;39320;53.214;6.556;2023-08-08T11:15:22;2.30;;;0.70;;
51907;SDS011;39320;53.214;6.556;2023-08-08T11:17:48;1.52;;;0.60;;
51907;SDS011;39320;53.214;6.556;2023-08-08T11:20:14;2.47;;;0.63;;
51907;SDS011;39320;53.214;6.556;2023-08-08T11:22:40;2.00;;;0.70;;
51907;SDS011;39320;53.214;6.556;2023-08-08T11:25:07;1.95;;;0.77;;
51907;SDS011;39320;53.214;6.556;2023-08-08T11:27:33;1.38;;;0.55;;
51907;SDS011;39320;53.214;6.556;2023-08-08T11:29:59;2.13;;;0.70;;
51907;SDS011;39320;53.214;6.556;2023-08-08T11:32:25;0.38;;;0.30;;
51907;SDS011;39320;53.214;6.556;2023-08-08T11:34:53;0.82;;;0.57;;
51907;SDS011;39320;53.214;6.556;2023-08-08T11:37:20;2.08;;;0.70;;
51907;SDS011;39320;53.214;6.556;2023-08-08T11:39:47;1.30;;;0.47;;
51907;SDS011;39320;53.214;6.556;2023-08-08T11:42:13;2.13;;;0.50;;
51907;SDS011;39320;53.214;6.556;2023-08-08T11:44:40;1.42;;;0.43;;
51907;SDS011;39320;53.214;6.556;2023-08-08T11:47:06;1.67;;;0.60;;
51907;SDS011;39320;53.214;6.556;2023-08-08T11:49:38;2.08;;;0.50;;
51907;SDS011;39320;53.214;6.556;2023-08-08T11:52:06;1.05;;;0.50;;
51907;SDS011;39320;53.214;6.556;2023-08-08T11:54:32;2.70;;;0.50;;
51907;SDS011;39320;53.214;6.556;2023-08-08T11:57:00;2.72;;;0.60;;
51907;SDS011;39320;53.214;6.556;2023-08-08T11:59:26;1.13;;;0.50;;
51907;SDS011;39320;53.214;6.556;2023-08-08T12:01:52;1.65;;;0.50;;
51907;SDS011;39320;53.214;6.556;2023-08-08T12:04:19;2.40;;;0.70;;
51907;SDS011;39320;53.214;6.556;2023-08-08T12:06:45;2.25;;;0.70;;
51907;SDS011;39320;53.214;6.556;2023-08-08T12:09:12;1.55;;;0.60;;
51907;SDS011;39320;53.214;6.556;2023-08-08T12:11:41;1.90;;;0.70;;
51907;SDS011;39320;53.214;6.556;2023-08-08T12:14:07;1.35;;;0.50;;
51907;SDS011;39320;53.214;6.556;2023-08-08T12:16:36;1.35;;;0.50;;
51907;SDS011;39320;53.214;6.556;2023-08-08T12:19:06;1.02;;;0.52;;
51907;SDS011;39320;53.214;6.556;2023-08-08T12:21:34;1.27;;;0.80;;
51907;SDS011;39320;53.214;6.556;2023-08-08T12:24:00;3.20;;;0.68;;
51907;SDS011;39320;53.214;6.556;2023-08-08T12:26:26;2.60;;;1.00;;
51907;SDS011;39320;53.214;6.556;2023-08-08T12:28:52;1.73;;;0.55;;
51907;SDS011;39320;53.214;6.556;2023-08-08T12:31:21;1.80;;;0.80;;
51907;SDS011;39320;53.214;6.556;2023-08-08T12:33:47;3.42;;;1.00;;
51907;SDS011;39320;53.214;6.556;2023-08-08T12:36:15;1.33;;;0.70;;
51907;SDS011;39320;53.214;6.556;2023-08-08T12:38:41;3.63;;;0.80;;
51907;SDS011;39320;53.214;6.556;2023-08-08T12:41:10;2.63;;;1.05;;
51907;SDS011;39320;53.214;6.556;2023-08-08T12:43:36;2.75;;;0.80;;
51907;SDS011;39320;53.214;6.556;2023-08-08T12:46:02;1.33;;;0.57;;
51907;SDS011;39320;53.214;6.556;2023-08-08T12:48:27;1.73;;;0.75;;
51907;SDS011;39320;53.214;6.556;2023-08-08T12:50:53;2.15;;;1.00;;
51907;SDS011;39320;53.214;6.556;2023-08-08T12:53:19;2.70;;;0.77;;
51907;SDS011;39320;53.214;6.556;2023-08-08T12:55:44;2.40;;;0.70;;
51907;SDS011;39320;53.214;6.556;2023-08-08T12:58:10;3.97;;;0.60;;
51907;SDS011;39320;53.214;6.556;2023-08-08T13:00:36;0.98;;;0.50;;
51907;SDS011;39320;53.214;6.556;2023-08-08T13:03:02;1.35;;;0.50;;
51907;SDS011;39320;53.214;6.556;2023-08-08T13:05:28;1.98;;;0.55;;
51907;SDS011;39320;53.214;6.556;2023-08-08T13:07:54;2.25;;;0.70;;
51907;SDS011;39320;53.214;6.556;2023-08-08T13:10:20;1.48;;;0.55;;
51907;SDS011;39320;53.214;6.556;2023-08-08T13:12:46;1.02;;;0.60;;
51907;SDS011;39320;53.214;6.556;2023-08-08T13:15:13;3.20;;;0.80;;
51907;SDS011;39320;53.214;6.556;2023-08-08T13:17:39;0.95;;;0.63;;
51907;SDS011;39320;53.214;6.556;2023-08-08T13:20:05;1.52;;;0.80;;
51907;SDS011;39320;53.214;6.556;2023-08-08T13:22:32;1.17;;;0.50;;
51907;SDS011;39320;53.214;6.556;2023-08-08T13:24:58;1.98;;;0.65;;
51907;SDS011;39320;53.214;6.556;2023-08-08T13:27:24;2.58;;;0.70;;
51907;SDS011;39320;53.214;6.556;2023-08-08T13:29:50;1.27;;;0.80;;
51907;SDS011;39320;53.214;6.556;2023-08-08T13:32:16;1.58;;;0.60;;
51907;SDS011;39320;53.214;6.556;2023-08-08T13:34:42;1.88;;;0.68;;
51907;SDS011;39320;53.214;6.556;2023-08-08T13:37:07;1.30;;;0.63;;
51907;SDS011;39320;53.214;6.556;2023-08-08T13:39:33;2.22;;;0.60;;
51907;SDS011;39320;53.214;6.556;2023-08-08T13:41:59;1.00;;;0.68;;
51907;SDS011;39320;53.214;6.556;2023-08-08T13:44:24;1.35;;;0.57;;
51907;SDS011;39320;53.214;6.556;2023-08-08T13:46:50;2.15;;;0.60;;
51907;SDS011;39320;53.214;6.556;2023-08-08T13:49:16;2.10;;;0.80;;
51907;SDS011;39320;53.214;6.556;2023-08-08T13:51:42;2.05;;;0.70;;
51907;SDS011;39320;53.214;6.556;2023-08-08T13:54:09;1.77;;;0.80;;
51907;SDS011;39320;53.214;6.556;2023-08-08T13:56:35;3.58;;;0.57;;
51907;SDS011;39320;53.214;6.556;2023-08-08T13:59:01;6.00;;;0.60;;
51907;SDS011;39320;53.214;6.556;2023-08-08T14:01:27;2.20;;;1.08;;
51907;SDS011;39320;53.214;6.556;2023-08-08T14:03:52;1.33;;;0.57;;
51907;SDS011;39320;53.214;6.556;2023-08-08T14:06:18;1.27;;;0.55;;
51907;SDS011;39320;53.214;6.556;2023-08-08T14:08:44;2.17;;;0.77;;
51907;SDS011;39320;53.214;6.556;2023-08-08T14:11:10;1.25;;;0.60;;
51907;SDS011;39320;53.214;6.556;2023-08-08T14:13:36;2.38;;;0.70;;
51907;SDS011;39320;53.214;6.556;2023-08-08T14:16:03;0.73;;;0.52;;
51907;SDS011;39320;53.214;6.556;2023-08-08T14:18:29;3.33;;;0.77;;
51907;SDS011;39320;53.214;6.556;2023-08-08T14:20:55;1.77;;;0.50;;
51907;SDS011;39320;53.214;6.556;2023-08-08T14:23:21;1.40;;;0.50;;
51907;SDS011;39320;53.214;6.556;2023-08-08T14:25:47;1.60;;;0.70;;
51907;SDS011;39320;53.214;6.556;2023-08-08T14:28:12;1.65;;;0.70;;
51907;SDS011;39320;53.214;6.556;2023-08-08T14:30:38;1.60;;;0.63;;
51907;SDS011;39320;53.214;6.556;2023-08-08T14:33:04;2.55;;;0.65;;
51907;SDS011;39320;53.214;6.556;2023-08-08T14:35:30;3.67;;;0.70;;
51907;SDS011;39320;53.214;6.556;2023-08-08T14:37:55;1.40;;;0.60;;
51907;SDS011;39320;53.214;6.556;2023-08-08T14:40:21;1.40;;;0.50;;
51907;SDS011;39320;53.214;6.556;2023-08-08T14:42:47;1.60;;;0.50;;
51907;SDS011;39320;53.214;6.556;2023-08-08T14:45:13;1.80;;;0.70;;
51907;SDS011;39320;53.214;6.556;2023-08-08T14:47:39;1.08;;;0.55;;
51907;SDS011;39320;53.214;6.556;2023-08-08T14:50:05;1.05;;;0.70;;
51907;SDS011;39320;53.214;6.556;2023-08-08T14:52:31;3.55;;;0.88;;
51907;SDS011;39320;53.214;6.556;2023-08-08T14:54:57;1.45;;;0.60;;
51907;SDS011;39320;53.214;6.556;2023-08-08T14:57:23;2.85;;;0.60;;
51907;SDS011;39320;53.214;6.556;2023-08-08T14:59:49;1.23;;;0.60;;
51907;SDS011;39320;53.214;6.556;2023-08-08T15:02:14;2.45;;;0.73;;
51907;SDS011;39320;53.214;6.556;2023-08-08T15:04:40;1.65;;;0.70;;
51907;SDS011;39320;53.214;6.556;2023-08-08T15:07:06;4.07;;;0.75;;
51907;SDS011;39320;53.214;6.556;2023-08-08T15:09:32;1.45;;;0.70;;
51907;SDS011;39320;53.214;6.556;2023-08-08T15:11:58;2.85;;;0.80;;
51907;SDS011;39320;53.214;6.556;2023-08-08T15:14:24;4.22;;;0.75;;